Airfield :
LOGIN :

Register | Disclaimer

   EN    FR    IT 

 










Legend :    VFR   Marginal VFR   IFR   Intensive IFR   Very Intensive IFR
Visi :
Ceiling :
>= 8 km
>= 3000ft
5 to 8 km
1000 to 3000 ft
1500m to 5 km
500 to 1000 ft
800 to 1500m
200 to 500 ft
< 800m
< 200 ft
Symbols :   Thunderstorms  Fog  Heavy snow  Heavy precipitations  Wind > 20 kt
SIGMETs :     Misc.  Thunderstorms  Icing  Turbulence  Mountain Waves  Volcanic Ashes







- Airport Elevation : 171 ft
- IATA code : EGC
- Download approach charts


LFBE - Bergerac

CURRENT METAR :
  • 240830Z AUTO 05003KT 320V100 9999 FEW035 22/13 Q1022 NOSIG

EXPIRED METARs :
  • 240800Z AUTO VRB03KT CAVOK 21/13 Q1022 NOSIG
  • 240730Z AUTO 02004KT 330V060 CAVOK 21/12 Q1022 NOSIG
  • 240700Z AUTO 01003KT 320V060 9999 BKN040 20/12 Q1022 NOSIG
  • 240630Z AUTO VRB03KT 9999 OVC040 19/12 Q1022 NOSIG
  • 240600Z AUTO VRB03KT 9999 OVC038 18/12 Q1022 NOSIG
  • 240530Z AUTO 00000KT 9999 BKN038 16/13 Q1022 NOSIG

TAF TAF LFBE
Valid from the 23 at 12:00 until the 24 at 12:00 UTC


231100Z 2312/2412 30006KT 9999 BKN030
BECMG 2312/2314 CAVOK
BECMG 2403/2405 BKN040
No reported NOTAMs for that airfield.



MET'MAP, your aeronautical weather chart ! - Copyright ORBIFLY December 2007 - Disclaimer

ORBIFLY MET'MAP TEAM :

Programming & Development : Alexandra Zaïnal
Concept & Development : Baudouin d'Aumeries
Co-Development & Prog : Marc-Olivier Méhu
Technical & hardware support : Manuel Goepfert

Contact : metmap@orbifly.com




SOURCES & CREDITS :

   NOAA